sensor_id;sensor_type;location;lat;lon;timestamp;P1;durP1;ratioP1;P2;durP2;ratioP2
37241;SDS011;23135;51.078;12.108;2023-05-09T00:00:42;6.35;;;3.10;;
37241;SDS011;23135;51.078;12.108;2023-05-09T00:03:08;6.00;;;2.40;;
37241;SDS011;23135;51.078;12.108;2023-05-09T00:05:35;7.55;;;2.05;;
37241;SDS011;23135;51.078;12.108;2023-05-09T00:08:01;9.38;;;2.85;;
37241;SDS011;23135;51.078;12.108;2023-05-09T00:10:27;4.22;;;1.52;;
37241;SDS011;23135;51.078;12.108;2023-05-09T00:12:52;5.57;;;1.23;;
37241;SDS011;23135;51.078;12.108;2023-05-09T00:15:18;8.68;;;2.55;;
37241;SDS011;23135;51.078;12.108;2023-05-09T00:17:43;5.57;;;2.13;;
37241;SDS011;23135;51.078;12.108;2023-05-09T00:20:09;2.60;;;1.48;;
37241;SDS011;23135;51.078;12.108;2023-05-09T00:22:36;5.28;;;2.17;;
37241;SDS011;23135;51.078;12.108;2023-05-09T00:25:02;2.70;;;1.90;;
37241;SDS011;23135;51.078;12.108;2023-05-09T00:27:29;6.22;;;1.65;;
37241;SDS011;23135;51.078;12.108;2023-05-09T00:29:55;6.00;;;1.65;;
37241;SDS011;23135;51.078;12.108;2023-05-09T00:32:21;10.85;;;2.45;;
37241;SDS011;23135;51.078;12.108;2023-05-09T00:34:46;7.90;;;2.72;;
37241;SDS011;23135;51.078;12.108;2023-05-09T00:37:12;3.85;;;2.45;;
37241;SDS011;23135;51.078;12.108;2023-05-09T00:39:38;7.80;;;2.67;;
37241;SDS011;23135;51.078;12.108;2023-05-09T00:42:03;6.20;;;3.78;;
37241;SDS011;23135;51.078;12.108;2023-05-09T00:44:29;5.38;;;3.45;;
37241;SDS011;23135;51.078;12.108;2023-05-09T00:46:54;7.20;;;2.88;;
37241;SDS011;23135;51.078;12.108;2023-05-09T00:49:20;3.25;;;2.67;;
37241;SDS011;23135;51.078;12.108;2023-05-09T00:51:46;3.97;;;2.97;;
37241;SDS011;23135;51.078;12.108;2023-05-09T00:54:12;6.40;;;2.30;;
37241;SDS011;23135;51.078;12.108;2023-05-09T00:56:38;4.40;;;2.83;;
37241;SDS011;23135;51.078;12.108;2023-05-09T00:59:03;4.22;;;2.40;;
37241;SDS011;23135;51.078;12.108;2023-05-09T01:01:30;6.00;;;3.05;;
37241;SDS011;23135;51.078;12.108;2023-05-09T01:03:56;5.72;;;2.90;;
37241;SDS011;23135;51.078;12.108;2023-05-09T01:06:34;4.68;;;2.92;;
37241;SDS011;23135;51.078;12.108;2023-05-09T01:18:11;5.47;;;3.35;;
37241;SDS011;23135;51.078;12.108;2023-05-09T01:20:46;9.05;;;3.47;;
37241;SDS011;23135;51.078;12.108;2023-05-09T01:31:51;7.63;;;2.67;;
37241;SDS011;23135;51.078;12.108;2023-05-09T01:34:19;5.88;;;3.58;;
37241;SDS011;23135;51.078;12.108;2023-05-09T01:36:48;7.10;;;3.67;;
37241;SDS011;23135;51.078;12.108;2023-05-09T01:39:15;7.60;;;3.83;;
37241;SDS011;23135;51.078;12.108;2023-05-09T01:41:42;3.97;;;3.03;;
37241;SDS011;23135;51.078;12.108;2023-05-09T01:44:10;4.95;;;3.08;;
37241;SDS011;23135;51.078;12.108;2023-05-09T01:46:37;4.78;;;3.03;;
37241;SDS011;23135;51.078;12.108;2023-05-09T01:49:04;7.35;;;3.55;;
37241;SDS011;23135;51.078;12.108;2023-05-09T01:51:32;15.50;;;4.93;;
37241;SDS011;23135;51.078;12.108;2023-05-09T01:53:58;7.65;;;2.90;;
37241;SDS011;23135;51.078;12.108;2023-05-09T01:56:25;6.63;;;3.40;;
37241;SDS011;23135;51.078;12.108;2023-05-09T01:58:51;4.40;;;3.25;;
37241;SDS011;23135;51.078;12.108;2023-05-09T02:01:19;5.03;;;3.88;;
37241;SDS011;23135;51.078;12.108;2023-05-09T02:03:47;8.73;;;4.15;;
37241;SDS011;23135;51.078;12.108;2023-05-09T02:06:16;12.52;;;4.70;;
37241;SDS011;23135;51.078;12.108;2023-05-09T02:08:44;4.97;;;4.18;;
37241;SDS011;23135;51.078;12.108;2023-05-09T02:11:11;8.00;;;3.75;;
37241;SDS011;23135;51.078;12.108;2023-05-09T02:13:36;10.20;;;3.85;;
37241;SDS011;23135;51.078;12.108;2023-05-09T02:16:02;8.20;;;4.28;;
37241;SDS011;23135;51.078;12.108;2023-05-09T02:18:29;11.88;;;6.10;;
37241;SDS011;23135;51.078;12.108;2023-05-09T02:20:56;8.45;;;3.92;;
37241;SDS011;23135;51.078;12.108;2023-05-09T02:23:22;7.28;;;4.55;;
37241;SDS011;23135;51.078;12.108;2023-05-09T02:25:47;7.20;;;5.03;;
37241;SDS011;23135;51.078;12.108;2023-05-09T02:28:14;9.38;;;4.60;;
37241;SDS011;23135;51.078;12.108;2023-05-09T02:30:43;11.02;;;4.38;;
37241;SDS011;23135;51.078;12.108;2023-05-09T02:33:11;21.17;;;4.47;;
37241;SDS011;23135;51.078;12.108;2023-05-09T02:35:38;8.27;;;3.92;;
37241;SDS011;23135;51.078;12.108;2023-05-09T02:38:07;4.63;;;3.10;;
37241;SDS011;23135;51.078;12.108;2023-05-09T02:40:33;7.75;;;3.70;;
37241;SDS011;23135;51.078;12.108;2023-05-09T02:43:00;6.03;;;3.30;;
37241;SDS011;23135;51.078;12.108;2023-05-09T02:45:26;6.28;;;5.00;;
37241;SDS011;23135;51.078;12.108;2023-05-09T02:47:51;8.15;;;4.63;;
37241;SDS011;23135;51.078;12.108;2023-05-09T02:50:17;14.35;;;5.68;;
37241;SDS011;23135;51.078;12.108;2023-05-09T02:52:42;10.70;;;4.65;;
37241;SDS011;23135;51.078;12.108;2023-05-09T02:55:08;5.80;;;4.22;;
37241;SDS011;23135;51.078;12.108;2023-05-09T02:57:34;14.27;;;5.70;;
37241;SDS011;23135;51.078;12.108;2023-05-09T03:00:00;7.40;;;4.35;;
37241;SDS011;23135;51.078;12.108;2023-05-09T03:02:26;10.77;;;5.57;;
37241;SDS011;23135;51.078;12.108;2023-05-09T03:04:52;4.20;;;3.70;;
37241;SDS011;23135;51.078;12.108;2023-05-09T03:07:17;6.22;;;5.55;;
37241;SDS011;23135;51.078;12.108;2023-05-09T03:09:43;7.85;;;4.90;;
37241;SDS011;23135;51.078;12.108;2023-05-09T03:12:08;6.97;;;4.85;;
37241;SDS011;23135;51.078;12.108;2023-05-09T03:14:34;4.60;;;4.13;;
37241;SDS011;23135;51.078;12.108;2023-05-09T03:16:59;8.70;;;4.22;;
37241;SDS011;23135;51.078;12.108;2023-05-09T03:19:25;5.65;;;4.40;;
37241;SDS011;23135;51.078;12.108;2023-05-09T03:21:51;5.28;;;3.53;;
37241;SDS011;23135;51.078;12.108;2023-05-09T03:24:16;8.75;;;5.03;;
37241;SDS011;23135;51.078;12.108;2023-05-09T03:26:42;5.18;;;3.70;;
37241;SDS011;23135;51.078;12.108;2023-05-09T03:29:07;6.70;;;4.82;;
37241;SDS011;23135;51.078;12.108;2023-05-09T03:31:33;5.32;;;4.28;;
37241;SDS011;23135;51.078;12.108;2023-05-09T03:33:59;6.18;;;4.00;;
37241;SDS011;23135;51.078;12.108;2023-05-09T03:36:25;7.50;;;4.43;;
37241;SDS011;23135;51.078;12.108;2023-05-09T03:38:51;6.07;;;4.18;;
37241;SDS011;23135;51.078;12.108;2023-05-09T03:41:16;7.65;;;4.40;;
37241;SDS011;23135;51.078;12.108;2023-05-09T03:43:43;11.18;;;4.93;;
37241;SDS011;23135;51.078;12.108;2023-05-09T03:46:09;9.95;;;4.50;;
37241;SDS011;23135;51.078;12.108;2023-05-09T03:48:34;7.93;;;5.05;;
37241;SDS011;23135;51.078;12.108;2023-05-09T03:51:00;10.80;;;5.00;;
37241;SDS011;23135;51.078;12.108;2023-05-09T03:53:26;12.68;;;5.85;;
37241;SDS011;23135;51.078;12.108;2023-05-09T03:55:52;9.70;;;5.53;;
37241;SDS011;23135;51.078;12.108;2023-05-09T03:58:17;9.50;;;5.25;;
37241;SDS011;23135;51.078;12.108;2023-05-09T04:00:43;10.75;;;5.35;;
37241;SDS011;23135;51.078;12.108;2023-05-09T04:03:09;7.05;;;4.30;;
37241;SDS011;23135;51.078;12.108;2023-05-09T04:05:34;9.18;;;4.47;;
37241;SDS011;23135;51.078;12.108;2023-05-09T04:08:00;18.38;;;4.95;;
37241;SDS011;23135;51.078;12.108;2023-05-09T04:10:27;7.82;;;4.60;;
37241;SDS011;23135;51.078;12.108;2023-05-09T04:12:52;7.72;;;4.22;;
37241;SDS011;23135;51.078;12.108;2023-05-09T04:15:18;11.25;;;4.80;;
37241;SDS011;23135;51.078;12.108;2023-05-09T04:17:43;13.05;;;4.53;;
37241;SDS011;23135;51.078;12.108;2023-05-09T04:20:09;9.13;;;4.88;;
37241;SDS011;23135;51.078;12.108;2023-05-09T04:22:35;8.07;;;5.45;;
37241;SDS011;23135;51.078;12.108;2023-05-09T04:25:01;14.52;;;5.32;;
37241;SDS011;23135;51.078;12.108;2023-05-09T04:27:28;9.15;;;4.40;;
37241;SDS011;23135;51.078;12.108;2023-05-09T04:29:53;11.70;;;5.00;;
37241;SDS011;23135;51.078;12.108;2023-05-09T04:32:19;10.02;;;5.18;;
37241;SDS011;23135;51.078;12.108;2023-05-09T04:34:47;6.38;;;4.07;;
37241;SDS011;23135;51.078;12.108;2023-05-09T04:37:13;12.65;;;5.05;;
37241;SDS011;23135;51.078;12.108;2023-05-09T04:39:38;25.00;;;5.53;;
37241;SDS011;23135;51.078;12.108;2023-05-09T04:42:04;15.10;;;4.82;;
37241;SDS011;23135;51.078;12.108;2023-05-09T04:44:30;22.52;;;6.03;;
37241;SDS011;23135;51.078;12.108;2023-05-09T04:46:56;29.45;;;8.50;;
37241;SDS011;23135;51.078;12.108;2023-05-09T04:49:22;17.10;;;6.18;;
37241;SDS011;23135;51.078;12.108;2023-05-09T04:51:47;13.95;;;5.28;;
37241;SDS011;23135;51.078;12.108;2023-05-09T04:54:13;16.27;;;6.13;;
37241;SDS011;23135;51.078;12.108;2023-05-09T04:56:39;13.63;;;5.88;;
37241;SDS011;23135;51.078;12.108;2023-05-09T04:59:05;13.52;;;5.22;;
37241;SDS011;23135;51.078;12.108;2023-05-09T05:01:30;17.10;;;5.03;;
37241;SDS011;23135;51.078;12.108;2023-05-09T05:03:56;8.57;;;4.07;;
37241;SDS011;23135;51.078;12.108;2023-05-09T05:06:22;8.02;;;4.38;;
37241;SDS011;23135;51.078;12.108;2023-05-09T05:08:47;15.55;;;4.18;;
37241;SDS011;23135;51.078;12.108;2023-05-09T05:11:13;14.10;;;4.32;;
37241;SDS011;23135;51.078;12.108;2023-05-09T05:13:39;17.60;;;3.75;;
37241;SDS011;23135;51.078;12.108;2023-05-09T05:16:04;14.10;;;3.65;;
37241;SDS011;23135;51.078;12.108;2023-05-09T05:18:30;16.73;;;3.75;;
37241;SDS011;23135;51.078;12.108;2023-05-09T05:20:55;8.70;;;3.35;;
37241;SDS011;23135;51.078;12.108;2023-05-09T05:23:21;9.45;;;3.65;;
37241;SDS011;23135;51.078;12.108;2023-05-09T05:25:47;11.00;;;3.53;;
37241;SDS011;23135;51.078;12.108;2023-05-09T05:28:12;20.00;;;3.58;;
37241;SDS011;23135;51.078;12.108;2023-05-09T05:30:39;12.30;;;2.78;;
37241;SDS011;23135;51.078;12.108;2023-05-09T05:33:05;10.68;;;2.90;;
37241;SDS011;23135;51.078;12.108;2023-05-09T05:35:30;9.23;;;2.72;;
37241;SDS011;23135;51.078;12.108;2023-05-09T05:37:56;3.15;;;2.42;;
37241;SDS011;23135;51.078;12.108;2023-05-09T05:40:21;5.50;;;2.40;;
37241;SDS011;23135;51.078;12.108;2023-05-09T05:42:47;4.53;;;2.88;;
37241;SDS011;23135;51.078;12.108;2023-05-09T05:45:12;13.65;;;3.67;;
37241;SDS011;23135;51.078;12.108;2023-05-09T05:47:38;6.05;;;2.60;;
37241;SDS011;23135;51.078;12.108;2023-05-09T05:50:04;4.93;;;2.03;;
37241;SDS011;23135;51.078;12.108;2023-05-09T05:52:32;13.50;;;3.35;;
37241;SDS011;23135;51.078;12.108;2023-05-09T05:54:57;7.63;;;1.88;;
37241;SDS011;23135;51.078;12.108;2023-05-09T05:57:23;5.40;;;2.38;;
37241;SDS011;23135;51.078;12.108;2023-05-09T05:59:49;3.60;;;1.70;;
37241;SDS011;23135;51.078;12.108;2023-05-09T06:02:18;3.08;;;1.88;;
37241;SDS011;23135;51.078;12.108;2023-05-09T06:04:44;8.45;;;3.00;;
37241;SDS011;23135;51.078;12.108;2023-05-09T06:07:09;5.68;;;3.33;;
37241;SDS011;23135;51.078;12.108;2023-05-09T06:09:36;7.95;;;3.03;;
37241;SDS011;23135;51.078;12.108;2023-05-09T06:12:02;29.27;;;3.88;;
37241;SDS011;23135;51.078;12.108;2023-05-09T06:14:27;22.05;;;2.95;;
37241;SDS011;23135;51.078;12.108;2023-05-09T06:16:53;10.63;;;2.58;;
37241;SDS011;23135;51.078;12.108;2023-05-09T06:19:18;12.05;;;2.03;;
37241;SDS011;23135;51.078;12.108;2023-05-09T06:21:44;6.28;;;2.17;;
37241;SDS011;23135;51.078;12.108;2023-05-09T06:24:10;8.63;;;2.95;;
37241;SDS011;23135;51.078;12.108;2023-05-09T06:26:35;5.35;;;2.25;;
37241;SDS011;23135;51.078;12.108;2023-05-09T06:29:01;16.48;;;3.55;;
37241;SDS011;23135;51.078;12.108;2023-05-09T06:31:28;7.35;;;3.88;;
37241;SDS011;23135;51.078;12.108;2023-05-09T06:33:53;7.10;;;2.10;;
37241;SDS011;23135;51.078;12.108;2023-05-09T06:36:19;3.28;;;1.75;;
37241;SDS011;23135;51.078;12.108;2023-05-09T06:38:45;5.70;;;1.60;;
37241;SDS011;23135;51.078;12.108;2023-05-09T06:41:10;2.38;;;1.95;;
37241;SDS011;23135;51.078;12.108;2023-05-09T06:43:36;1.92;;;1.00;;
37241;SDS011;23135;51.078;12.108;2023-05-09T06:46:01;5.50;;;1.63;;
37241;SDS011;23135;51.078;12.108;2023-05-09T06:48:27;3.70;;;1.42;;
37241;SDS011;23135;51.078;12.108;2023-05-09T06:50:53;10.07;;;1.98;;
37241;SDS011;23135;51.078;12.108;2023-05-09T06:53:18;10.80;;;1.60;;
37241;SDS011;23135;51.078;12.108;2023-05-09T06:55:44;4.35;;;1.63;;
37241;SDS011;23135;51.078;12.108;2023-05-09T06:58:10;3.38;;;1.65;;
37241;SDS011;23135;51.078;12.108;2023-05-09T07:00:36;3.67;;;1.48;;
37241;SDS011;23135;51.078;12.108;2023-05-09T07:03:02;2.30;;;1.25;;
37241;SDS011;23135;51.078;12.108;2023-05-09T07:05:27;17.17;;;2.53;;
37241;SDS011;23135;51.078;12.108;2023-05-09T07:07:53;3.13;;;1.85;;
37241;SDS011;23135;51.078;12.108;2023-05-09T07:10:21;3.60;;;1.42;;
37241;SDS011;23135;51.078;12.108;2023-05-09T07:12:47;1.08;;;0.98;;
37241;SDS011;23135;51.078;12.108;2023-05-09T07:15:12;2.38;;;1.02;;
37241;SDS011;23135;51.078;12.108;2023-05-09T07:17:38;6.10;;;2.00;;
37241;SDS011;23135;51.078;12.108;2023-05-09T07:20:04;5.28;;;1.40;;
37241;SDS011;23135;51.078;12.108;2023-05-09T07:22:31;1.05;;;0.95;;
37241;SDS011;23135;51.078;12.108;2023-05-09T07:24:56;12.30;;;2.53;;
37241;SDS011;23135;51.078;12.108;2023-05-09T07:27:22;7.85;;;2.40;;
37241;SDS011;23135;51.078;12.108;2023-05-09T07:29:47;9.05;;;1.73;;
37241;SDS011;23135;51.078;12.108;2023-05-09T07:32:16;6.60;;;1.40;;
37241;SDS011;23135;51.078;12.108;2023-05-09T07:34:44;25.73;;;2.28;;
37241;SDS011;23135;51.078;12.108;2023-05-09T07:37:10;7.85;;;1.50;;
37241;SDS011;23135;51.078;12.108;2023-05-09T07:39:35;3.08;;;1.90;;
37241;SDS011;23135;51.078;12.108;2023-05-09T07:42:01;4.40;;;1.60;;
37241;SDS011;23135;51.078;12.108;2023-05-09T07:44:27;10.45;;;1.85;;
37241;SDS011;23135;51.078;12.108;2023-05-09T07:46:53;6.43;;;1.77;;
37241;SDS011;23135;51.078;12.108;2023-05-09T07:49:19;2.75;;;1.23;;
37241;SDS011;23135;51.078;12.108;2023-05-09T07:51:45;8.57;;;1.67;;
37241;SDS011;23135;51.078;12.108;2023-05-09T07:54:11;6.75;;;1.75;;
37241;SDS011;23135;51.078;12.108;2023-05-09T07:56:36;4.22;;;1.30;;
37241;SDS011;23135;51.078;12.108;2023-05-09T07:59:02;3.00;;;0.90;;
37241;SDS011;23135;51.078;12.108;2023-05-09T08:01:28;8.70;;;1.45;;
37241;SDS011;23135;51.078;12.108;2023-05-09T08:03:53;5.40;;;1.73;;
37241;SDS011;23135;51.078;12.108;2023-05-09T08:06:19;5.28;;;0.98;;
37241;SDS011;23135;51.078;12.108;2023-05-09T08:08:44;4.35;;;1.48;;
37241;SDS011;23135;51.078;12.108;2023-05-09T08:11:10;3.00;;;1.10;;
37241;SDS011;23135;51.078;12.108;2023-05-09T08:13:35;6.40;;;1.70;;
37241;SDS011;23135;51.078;12.108;2023-05-09T08:16:01;6.32;;;1.33;;
37241;SDS011;23135;51.078;12.108;2023-05-09T08:18:26;5.95;;;1.02;;
37241;SDS011;23135;51.078;12.108;2023-05-09T08:20:52;8.00;;;2.03;;
37241;SDS011;23135;51.078;12.108;2023-05-09T08:23:18;5.43;;;2.53;;
37241;SDS011;23135;51.078;12.108;2023-05-09T08:25:43;4.82;;;1.45;;
37241;SDS011;23135;51.078;12.108;2023-05-09T08:28:09;2.88;;;2.05;;
37241;SDS011;23135;51.078;12.108;2023-05-09T08:30:34;5.10;;;1.63;;
37241;SDS011;23135;51.078;12.108;2023-05-09T08:33:00;2.85;;;1.55;;
37241;SDS011;23135;51.078;12.108;2023-05-09T08:35:26;2.65;;;1.15;;
37241;SDS011;23135;51.078;12.108;2023-05-09T08:37:52;11.38;;;2.08;;
37241;SDS011;23135;51.078;12.108;2023-05-09T08:40:17;3.05;;;1.80;;
37241;SDS011;23135;51.078;12.108;2023-05-09T08:42:43;3.60;;;1.23;;
37241;SDS011;23135;51.078;12.108;2023-05-09T08:45:10;4.55;;;1.40;;
37241;SDS011;23135;51.078;12.108;2023-05-09T08:47:39;62.72;;;14.88;;
37241;SDS011;23135;51.078;12.108;2023-05-09T08:50:06;10.00;;;3.90;;
37241;SDS011;23135;51.078;12.108;2023-05-09T08:52:32;15.95;;;2.58;;
37241;SDS011;23135;51.078;12.108;2023-05-09T08:55:00;3.25;;;2.03;;
37241;SDS011;23135;51.078;12.108;2023-05-09T08:57:28;6.43;;;1.83;;
37241;SDS011;23135;51.078;12.108;2023-05-09T08:59:56;2.05;;;1.65;;
37241;SDS011;23135;51.078;12.108;2023-05-09T09:02:22;1.70;;;1.60;;
37241;SDS011;23135;51.078;12.108;2023-05-09T09:04:48;2.33;;;1.55;;
37241;SDS011;23135;51.078;12.108;2023-05-09T09:07:14;4.10;;;2.38;;
37241;SDS011;23135;51.078;12.108;2023-05-09T09:09:43;6.28;;;1.77;;
37241;SDS011;23135;51.078;12.108;2023-05-09T09:12:10;4.35;;;1.65;;
37241;SDS011;23135;51.078;12.108;2023-05-09T09:14:38;4.25;;;2.08;;
37241;SDS011;23135;51.078;12.108;2023-05-09T09:17:10;3.83;;;1.88;;
37241;SDS011;23135;51.078;12.108;2023-05-09T09:19:39;6.30;;;1.80;;
37241;SDS011;23135;51.078;12.108;2023-05-09T09:22:07;6.35;;;1.52;;
37241;SDS011;23135;51.078;12.108;2023-05-09T09:24:34;4.72;;;1.85;;
37241;SDS011;23135;51.078;12.108;2023-05-09T09:27:03;6.55;;;1.77;;
37241;SDS011;23135;51.078;12.108;2023-05-09T09:29:32;7.35;;;1.10;;
37241;SDS011;23135;51.078;12.108;2023-05-09T09:32:00;3.10;;;1.02;;
37241;SDS011;23135;51.078;12.108;2023-05-09T09:34:27;2.95;;;1.42;;
37241;SDS011;23135;51.078;12.108;2023-05-09T09:36:53;5.32;;;1.52;;
37241;SDS011;23135;51.078;12.108;2023-05-09T09:39:18;10.32;;;1.95;;
37241;SDS011;23135;51.078;12.108;2023-05-09T09:41:45;6.75;;;1.10;;
37241;SDS011;23135;51.078;12.108;2023-05-09T09:44:12;6.03;;;0.50;;
37241;SDS011;23135;51.078;12.108;2023-05-09T09:46:49;4.63;;;0.70;;
37241;SDS011;23135;51.078;12.108;2023-05-09T09:49:22;3.42;;;0.68;;
37241;SDS011;23135;51.078;12.108;2023-05-09T09:51:53;7.32;;;1.05;;
37241;SDS011;23135;51.078;12.108;2023-05-09T09:54:26;1.83;;;1.10;;
37241;SDS011;23135;51.078;12.108;2023-05-09T09:56:52;5.38;;;0.95;;
37241;SDS011;23135;51.078;12.108;2023-05-09T09:59:25;5.47;;;1.00;;
37241;SDS011;23135;51.078;12.108;2023-05-09T10:04:20;4.00;;;0.73;;
37241;SDS011;23135;51.078;12.108;2023-05-09T10:06:55;1.02;;;0.30;;
37241;SDS011;23135;51.078;12.108;2023-05-09T10:09:23;1.90;;;0.50;;
37241;SDS011;23135;51.078;12.108;2023-05-09T10:11:50;8.40;;;0.57;;
37241;SDS011;23135;51.078;12.108;2023-05-09T10:14:17;1.45;;;0.38;;
37241;SDS011;23135;51.078;12.108;2023-05-09T10:16:46;4.78;;;0.55;;
37241;SDS011;23135;51.078;12.108;2023-05-09T10:19:12;2.05;;;1.45;;
37241;SDS011;23135;51.078;12.108;2023-05-09T10:21:41;3.17;;;0.95;;
37241;SDS011;23135;51.078;12.108;2023-05-09T10:24:08;1.15;;;0.70;;
37241;SDS011;23135;51.078;12.108;2023-05-09T10:26:35;1.88;;;0.70;;
37241;SDS011;23135;51.078;12.108;2023-05-09T10:29:05;4.28;;;0.55;;
37241;SDS011;23135;51.078;12.108;2023-05-09T10:31:34;5.68;;;0.50;;
37241;SDS011;23135;51.078;12.108;2023-05-09T10:34:04;2.35;;;0.60;;
37241;SDS011;23135;51.078;12.108;2023-05-09T10:36:33;2.10;;;0.75;;
37241;SDS011;23135;51.078;12.108;2023-05-09T10:39:00;1.80;;;0.40;;
37241;SDS011;23135;51.078;12.108;2023-05-09T10:41:26;5.20;;;0.17;;
37241;SDS011;23135;51.078;12.108;2023-05-09T10:43:54;3.15;;;0.60;;
37241;SDS011;23135;51.078;12.108;2023-05-09T10:46:21;2.35;;;0.85;;
37241;SDS011;23135;51.078;12.108;2023-05-09T10:48:47;2.45;;;0.80;;
37241;SDS011;23135;51.078;12.108;2023-05-09T10:51:14;4.68;;;1.27;;
37241;SDS011;23135;51.078;12.108;2023-05-09T10:53:44;3.78;;;1.15;;
37241;SDS011;23135;51.078;12.108;2023-05-09T10:56:22;6.75;;;0.82;;
37241;SDS011;23135;51.078;12.108;2023-05-09T10:58:55;4.63;;;1.48;;
37241;SDS011;23135;51.078;12.108;2023-05-09T11:01:28;2.47;;;0.82;;
37241;SDS011;23135;51.078;12.108;2023-05-09T11:04:00;4.60;;;0.88;;
37241;SDS011;23135;51.078;12.108;2023-05-09T11:06:39;6.35;;;1.27;;
37241;SDS011;23135;51.078;12.108;2023-05-09T11:11:52;13.32;;;0.95;;
37241;SDS011;23135;51.078;12.108;2023-05-09T11:14:38;6.00;;;1.88;;
37241;SDS011;23135;51.078;12.108;2023-05-09T11:17:26;4.22;;;0.90;;
37241;SDS011;23135;51.078;12.108;2023-05-09T11:20:00;6.47;;;1.23;;
37241;SDS011;23135;51.078;12.108;2023-05-09T11:22:30;4.88;;;1.33;;
37241;SDS011;23135;51.078;12.108;2023-05-09T11:25:07;2.65;;;0.88;;
37241;SDS011;23135;51.078;12.108;2023-05-09T11:30:04;1.35;;;0.77;;
37241;SDS011;23135;51.078;12.108;2023-05-09T11:32:33;1.33;;;0.80;;
37241;SDS011;23135;51.078;12.108;2023-05-09T11:35:05;2.55;;;0.70;;
37241;SDS011;23135;51.078;12.108;2023-05-09T11:37:38;1.17;;;0.93;;
37241;SDS011;23135;51.078;12.108;2023-05-09T11:40:18;3.20;;;0.93;;
37241;SDS011;23135;51.078;12.108;2023-05-09T11:42:46;5.93;;;2.15;;
37241;SDS011;23135;51.078;12.108;2023-05-09T11:45:14;37.05;;;8.20;;
37241;SDS011;23135;51.078;12.108;2023-05-09T11:47:40;58.75;;;11.30;;
37241;SDS011;23135;51.078;12.108;2023-05-09T11:50:06;3.17;;;0.70;;
37241;SDS011;23135;51.078;12.108;2023-05-09T11:52:33;5.25;;;0.57;;
37241;SDS011;23135;51.078;12.108;2023-05-09T11:54:59;1.65;;;0.77;;
37241;SDS011;23135;51.078;12.108;2023-05-09T11:57:25;1.25;;;0.20;;
37241;SDS011;23135;51.078;12.108;2023-05-09T11:59:52;2.80;;;0.55;;
37241;SDS011;23135;51.078;12.108;2023-05-09T12:02:18;3.47;;;0.32;;
37241;SDS011;23135;51.078;12.108;2023-05-09T12:04:46;6.13;;;0.98;;
37241;SDS011;23135;51.078;12.108;2023-05-09T12:07:12;0.30;;;0.30;;
37241;SDS011;23135;51.078;12.108;2023-05-09T12:09:38;0.95;;;0.20;;
37241;SDS011;23135;51.078;12.108;2023-05-09T12:12:07;6.45;;;0.25;;
37241;SDS011;23135;51.078;12.108;2023-05-09T12:14:38;1.15;;;0.30;;
37241;SDS011;23135;51.078;12.108;2023-05-09T12:17:05;5.43;;;2.35;;
37241;SDS011;23135;51.078;12.108;2023-05-09T12:19:32;5.72;;;2.13;;
37241;SDS011;23135;51.078;12.108;2023-05-09T12:21:58;2.90;;;0.20;;
37241;SDS011;23135;51.078;12.108;2023-05-09T12:24:25;4.80;;;0.70;;
37241;SDS011;23135;51.078;12.108;2023-05-09T12:26:52;5.88;;;1.50;;
37241;SDS011;23135;51.078;12.108;2023-05-09T12:29:19;0.63;;;0.13;;
37241;SDS011;23135;51.078;12.108;2023-05-09T12:31:46;3.60;;;0.70;;
37241;SDS011;23135;51.078;12.108;2023-05-09T12:34:13;6.22;;;0.30;;
37241;SDS011;23135;51.078;12.108;2023-05-09T12:36:39;4.75;;;0.75;;
37241;SDS011;23135;51.078;12.108;2023-05-09T12:39:08;0.82;;;0.20;;
37241;SDS011;23135;51.078;12.108;2023-05-09T12:41:47;5.68;;;0.28;;
37241;SDS011;23135;51.078;12.108;2023-05-09T12:44:31;2.22;;;0.20;;
37241;SDS011;23135;51.078;12.108;2023-05-09T12:46:59;1.17;;;0.30;;
37241;SDS011;23135;51.078;12.108;2023-05-09T12:49:28;3.22;;;0.30;;
37241;SDS011;23135;51.078;12.108;2023-05-09T12:51:55;0.40;;;0.30;;
37241;SDS011;23135;51.078;12.108;2023-05-09T12:54:22;1.23;;;0.17;;
37241;SDS011;23135;51.078;12.108;2023-05-09T12:56:50;2.20;;;0.70;;
37241;SDS011;23135;51.078;12.108;2023-05-09T12:59:20;2.67;;;0.10;;
37241;SDS011;23135;51.078;12.108;2023-05-09T13:01:57;1.17;;;0.20;;
37241;SDS011;23135;51.078;12.108;2023-05-09T13:04:24;0.52;;;0.10;;
37241;SDS011;23135;51.078;12.108;2023-05-09T13:06:55;4.65;;;0.10;;
37241;SDS011;23135;51.078;12.108;2023-05-09T13:09:22;4.93;;;0.40;;
37241;SDS011;23135;51.078;12.108;2023-05-09T13:11:51;2.78;;;0.10;;
37241;SDS011;23135;51.078;12.108;2023-05-09T13:14:18;3.08;;;0.70;;
37241;SDS011;23135;51.078;12.108;2023-05-09T13:16:45;2.80;;;0.20;;
37241;SDS011;23135;51.078;12.108;2023-05-09T13:19:11;1.08;;;0.25;;
37241;SDS011;23135;51.078;12.108;2023-05-09T13:21:37;3.15;;;0.20;;
37241;SDS011;23135;51.078;12.108;2023-05-09T13:24:03;4.45;;;0.30;;
37241;SDS011;23135;51.078;12.108;2023-05-09T13:26:29;2.30;;;0.32;;
37241;SDS011;23135;51.078;12.108;2023-05-09T13:28:55;5.18;;;0.20;;
37241;SDS011;23135;51.078;12.108;2023-05-09T13:31:21;1.08;;;0.30;;
37241;SDS011;23135;51.078;12.108;2023-05-09T13:33:47;0.70;;;0.20;;
37241;SDS011;23135;51.078;12.108;2023-05-09T13:36:13;1.90;;;0.10;;
37241;SDS011;23135;51.078;12.108;2023-05-09T13:38:39;2.83;;;0.17;;
37241;SDS011;23135;51.078;12.108;2023-05-09T13:41:08;2.92;;;0.45;;
37241;SDS011;23135;51.078;12.108;2023-05-09T13:43:34;2.72;;;0.10;;
37241;SDS011;23135;51.078;12.108;2023-05-09T13:46:00;0.60;;;0.10;;
37241;SDS011;23135;51.078;12.108;2023-05-09T13:48:26;2.95;;;0.30;;
37241;SDS011;23135;51.078;12.108;2023-05-09T13:50:52;5.47;;;0.13;;
37241;SDS011;23135;51.078;12.108;2023-05-09T13:53:18;3.00;;;0.25;;
37241;SDS011;23135;51.078;12.108;2023-05-09T13:55:43;5.78;;;0.35;;
37241;SDS011;23135;51.078;12.108;2023-05-09T13:58:09;3.30;;;0.20;;
37241;SDS011;23135;51.078;12.108;2023-05-09T14:00:36;2.05;;;0.25;;
37241;SDS011;23135;51.078;12.108;2023-05-09T14:03:01;1.08;;;0.10;;
37241;SDS011;23135;51.078;12.108;2023-05-09T14:05:27;1.70;;;0.00;;
37241;SDS011;23135;51.078;12.108;2023-05-09T14:07:55;2.42;;;0.20;;
37241;SDS011;23135;51.078;12.108;2023-05-09T14:10:21;0.95;;;0.15;;
37241;SDS011;23135;51.078;12.108;2023-05-09T14:12:48;0.30;;;0.10;;
37241;SDS011;23135;51.078;12.108;2023-05-09T14:15:13;1.45;;;0.30;;
37241;SDS011;23135;51.078;12.108;2023-05-09T14:17:40;4.00;;;0.30;;
37241;SDS011;23135;51.078;12.108;2023-05-09T14:20:07;5.20;;;0.38;;
37241;SDS011;23135;51.078;12.108;2023-05-09T14:22:33;7.53;;;0.20;;
37241;SDS011;23135;51.078;12.108;2023-05-09T14:24:58;2.83;;;0.15;;
37241;SDS011;23135;51.078;12.108;2023-05-09T14:27:24;6.70;;;0.65;;
37241;SDS011;23135;51.078;12.108;2023-05-09T14:29:50;1.35;;;0.20;;
37241;SDS011;23135;51.078;12.108;2023-05-09T14:32:16;1.02;;;0.22;;
37241;SDS011;23135;51.078;12.108;2023-05-09T14:34:41;1.17;;;0.20;;
37241;SDS011;23135;51.078;12.108;2023-05-09T14:37:07;2.10;;;0.17;;
37241;SDS011;23135;51.078;12.108;2023-05-09T14:39:40;2.13;;;0.57;;
37241;SDS011;23135;51.078;12.108;2023-05-09T14:42:07;2.97;;;0.13;;
37241;SDS011;23135;51.078;12.108;2023-05-09T14:44:38;6.75;;;0.30;;
37241;SDS011;23135;51.078;12.108;2023-05-09T14:47:04;1.27;;;0.20;;
37241;SDS011;23135;51.078;12.108;2023-05-09T14:49:31;1.52;;;0.22;;
37241;SDS011;23135;51.078;12.108;2023-05-09T14:51:57;3.53;;;0.30;;
37241;SDS011;23135;51.078;12.108;2023-05-09T14:54:22;2.58;;;0.35;;
37241;SDS011;23135;51.078;12.108;2023-05-09T14:56:48;5.05;;;0.15;;